Time;durP1;ratioP1;P1;durP2;ratioP2;P2;SDS_P1;SDS_P2;PMS_P1;PMS_P2;Temp;Humidity;BMP_temperature;BMP_pressure;BME280_temperature;BME280_humidity;BME280_pressure;Samples;Min_cycle;Max_cycle;Signal;HPM_P1;HPM_P2
2021/09/01 00:02:24;;;;;;;6.55;4.30;;;;;;;23.80;41.86;99549.63;5053198;28;20025;-37
2021/09/01 00:04:50;;;;;;;7.47;4.30;;;;;;;23.95;41.40;99548.59;5053267;28;20021;-37
2021/09/01 00:07:15;;;;;;;7.75;4.72;;;;;;;24.71;39.70;99537.47;5053390;28;20102;-38
2021/09/01 00:09:41;;;;;;;5.55;4.35;;;;;;;24.02;41.24;99548.19;5053214;28;20405;-35
2021/09/01 00:12:07;;;;;;;10.43;4.78;;;;;;;23.79;41.51;99545.28;5053292;28;20013;-35
2021/09/01 00:14:33;;;;;;;4.95;4.15;;;;;;;23.62;41.98;99559.38;5053147;28;20017;-36
2021/09/01 00:16:58;;;;;;;8.77;5.00;;;;;;;24.09;40.98;99555.97;5051705;28;20045;-36
2021/09/01 00:19:23;;;;;;;6.32;4.40;;;;;;;23.95;41.25;99562.19;5052977;28;20508;-36
2021/09/01 00:21:49;;;;;;;6.07;4.22;;;;;;;23.66;42.05;99564.22;5052307;28;20029;-36
2021/09/01 00:24:16;;;;;;;5.65;4.00;;;;;;;23.46;42.43;99565.34;5052746;28;20140;-36
2021/09/01 00:26:42;;;;;;;8.80;4.32;;;;;;;23.54;42.04;99568.19;5033236;28;20101;-36
2021/09/01 00:29:07;;;;;;;6.28;4.10;;;;;;;23.88;41.71;99560.94;5032914;28;20164;-36
2021/09/01 00:31:33;;;;;;;7.80;4.78;;;;;;;23.32;43.37;99557.94;5032726;28;20021;-37
2021/09/01 00:33:58;;;;;;;8.77;5.50;;;;;;;23.17;45.03;99553.50;5032549;28;20047;-36
2021/09/01 00:36:24;;;;;;;9.32;5.60;;;;;;;23.18;45.31;99551.59;5032524;28;20033;-35
2021/09/01 00:38:49;;;;;;;8.60;5.60;;;;;;;23.26;44.75;99545.50;5032880;28;20040;-36
2021/09/01 00:41:24;;;;;;;11.27;5.40;;;;;;;23.44;44.37;99554.78;5032603;28;20034;-36
2021/09/01 00:43:51;;;;;;;7.55;5.10;;;;;;;22.96;45.58;99552.94;5032458;28;20033;-36
2021/09/01 00:46:17;;;;;;;6.80;5.22;;;;;;;23.12;45.66;99552.78;5032724;28;20021;-35
2021/09/01 00:48:43;;;;;;;8.65;5.63;;;;;;;22.71;46.82;99553.22;5032362;28;20025;-36
2021/09/01 00:51:08;;;;;;;8.57;5.70;;;;;;;23.40;45.33;99559.19;5032598;28;20029;-36
2021/09/01 00:53:34;;;;;;;8.73;5.95;;;;;;;22.70;46.74;99555.13;5032269;28;20059;-36
2021/09/01 00:56:00;;;;;;;7.60;5.60;;;;;;;22.42;48.14;99562.19;5032157;28;20056;-36
2021/09/01 00:58:25;;;;;;;8.55;5.25;;;;;;;22.25;48.57;99555.31;5032502;28;20111;-36
2021/09/01 01:03:31;;;;;;;9.10;5.60;;;;;;;21.97;49.44;99556.06;5031908;28;20031;-36
2021/09/01 01:05:57;;;;;;;8.38;5.80;;;;;;;21.73;49.85;99558.72;5031528;28;20030;-36
2021/09/01 01:08:25;;;;;;;7.63;5.80;;;;;;;21.80;49.78;99554.59;5031726;28;20501;-36
2021/09/01 01:10:51;;;;;;;8.63;5.40;;;;;;;21.84;50.14;99573.78;5030650;28;20021;-37
2021/09/01 01:13:16;;;;;;;8.43;5.40;;;;;;;21.97;49.35;99569.63;5031564;28;20452;-36
2021/09/01 01:15:42;;;;;;;8.77;5.50;;;;;;;21.95;49.40;99577.22;5032141;28;20099;-37
2021/09/01 01:18:09;;;;;;;6.55;5.05;;;;;;;22.04;48.19;99565.47;5031820;28;20025;-37
2021/09/01 01:20:35;;;;;;;6.95;4.75;;;;;;;22.27;46.48;99565.06;5032111;28;20025;-37
2021/09/01 01:23:01;;;;;;;7.38;5.18;;;;;;;22.30;47.37;99567.22;5031836;28;20144;-37
2021/09/01 01:25:39;;;;;;;8.70;5.00;;;;;;;22.83;45.80;99569.91;5041061;28;20131;-36
2021/09/01 01:28:05;;;;;;;6.68;4.90;;;;;;;22.25;47.56;99568.06;5051848;28;20025;-36
2021/09/01 01:30:31;;;;;;;9.77;5.00;;;;;;;22.16;47.35;99573.25;5051909;28;20032;-35
2021/09/01 01:32:56;;;;;;;8.90;5.15;;;;;;;22.11;47.44;99565.19;5051612;28;20013;-37
2021/09/01 01:35:33;;;;;;;8.65;5.18;;;;;;;22.74;46.01;99560.78;5052116;28;20473;-37
2021/09/01 01:37:59;;;;;;;5.38;4.68;;;;;;;22.41;47.39;99563.31;5033801;28;20339;-37
2021/09/01 01:40:25;;;;;;;6.88;4.75;;;;;;;22.27;47.10;99563.16;5051777;28;20091;-37
2021/09/01 01:42:53;;;;;;;5.55;4.20;;;;;;;22.31;46.82;99557.97;5051539;28;20029;-37
2021/09/01 01:45:19;;;;;;;6.55;4.90;;;;;;;22.45;46.79;99564.34;5051393;28;20029;-36
2021/09/01 01:47:44;;;;;;;9.80;5.40;;;;;;;23.00;45.54;99562.09;5051904;28;20028;-37
2021/09/01 01:50:10;;;;;;;8.60;5.40;;;;;;;22.02;48.76;99564.16;5050571;28;20058;-36
2021/09/01 01:52:35;;;;;;;8.10;5.10;;;;;;;21.70;49.97;99565.47;5051699;28;20025;-37
2021/09/01 01:55:02;;;;;;;6.53;5.07;;;;;;;21.89;48.75;99557.47;5050686;28;20118;-37
2021/09/01 01:57:28;;;;;;;7.22;4.68;;;;;;;22.43;47.14;99569.25;5051113;28;20394;-36
2021/09/01 01:59:53;;;;;;;7.53;5.00;;;;;;;22.33;47.21;99572.06;5051336;28;20029;-37
2021/09/01 02:02:19;;;;;;;7.22;5.03;;;;;;;22.12;48.16;99574.09;5051241;28;20461;-37
2021/09/01 02:04:44;;;;;;;6.18;5.07;;;;;;;21.89;48.41;99562.91;5051504;28;20036;-36
2021/09/01 02:07:10;;;;;;;6.95;4.90;;;;;;;21.99;47.15;99560.13;5051259;28;20040;-37
2021/09/01 02:09:35;;;;;;;7.05;4.93;;;;;;;22.60;45.83;99564.19;5051123;28;20132;-37
2021/09/01 02:12:01;;;;;;;9.43;5.20;;;;;;;22.00;47.54;99558.22;5051144;28;20519;-36
2021/09/01 02:14:26;;;;;;;6.28;4.25;;;;;;;21.98;46.78;99558.50;5050875;28;20025;-37
2021/09/01 02:16:51;;;;;;;6.22;4.60;;;;;;;21.95;47.86;99560.97;5051163;28;20036;-36
2021/09/01 02:19:17;;;;;;;7.22;4.53;;;;;;;22.47;46.45;99559.44;5051104;28;20035;-37
2021/09/01 02:21:51;;;;;;;6.55;4.55;;;;;;;22.27;46.89;99562.34;5050100;28;20025;-37
2021/09/01 02:24:17;;;;;;;7.30;4.63;;;;;;;22.09;46.55;99563.84;5050600;28;20489;-36
2021/09/01 02:26:42;;;;;;;6.50;4.65;;;;;;;21.96;46.64;99563.41;5031164;28;20048;-36
2021/09/01 02:29:08;;;;;;;7.35;4.70;;;;;;;21.94;46.71;99564.78;5030758;28;20485;-36
2021/09/01 02:31:33;;;;;;;10.05;4.35;;;;;;;22.63;45.04;99566.31;5030941;28;20362;-36
2021/09/01 02:33:58;;;;;;;7.43;4.47;;;;;;;22.10;46.22;99568.97;5030820;28;20024;-36
2021/09/01 02:36:24;;;;;;;5.78;4.25;;;;;;;22.08;46.15;99576.56;5030737;28;20113;-36
2021/09/01 02:38:49;;;;;;;7.93;4.43;;;;;;;22.14;45.73;99569.22;5030880;28;20029;-35
2021/09/01 02:41:15;;;;;;;5.07;4.13;;;;;;;22.03;45.96;99571.22;5030652;28;20142;-35
2021/09/01 02:43:40;;;;;;;6.25;4.25;;;;;;;21.93;45.95;99568.56;5030804;28;20033;-36
2021/09/01 02:46:06;;;;;;;8.57;4.32;;;;;;;21.89;45.68;99576.44;5030625;28;20040;-36
2021/09/01 02:48:31;;;;;;;5.45;4.30;;;;;;;21.93;45.67;99580.19;5029522;28;20402;-36
2021/09/01 02:50:57;;;;;;;5.05;4.10;;;;;;;21.91;45.64;99590.50;5030967;28;20021;-35
2021/09/01 02:53:22;;;;;;;6.00;4.45;;;;;;;22.04;45.64;99591.78;5030730;28;20027;-36
2021/09/01 02:55:48;;;;;;;6.97;4.45;;;;;;;21.76;45.98;99568.97;5030663;28;20106;-36
2021/09/01 02:58:15;;;;;;;6.90;4.38;;;;;;;22.10;45.53;99590.63;5030501;28;20032;-36
2021/09/01 03:00:40;;;;;;;7.15;4.53;;;;;;;22.03;45.65;99592.88;5030782;28;20470;-37
2021/09/01 03:03:06;;;;;;;8.98;4.68;;;;;;;22.04;45.84;99600.72;5030850;28;20033;-36
2021/09/01 03:05:31;;;;;;;7.05;4.68;;;;;;;22.15;45.59;99606.88;5030826;28;20413;-37
2021/09/01 03:07:57;;;;;;;10.88;5.13;;;;;;;22.55;44.76;99604.13;5033766;28;20056;-36
2021/09/01 03:10:22;;;;;;;6.63;4.85;;;;;;;22.05;46.22;99610.47;5034548;28;20524;-36
2021/09/01 03:12:48;;;;;;;7.78;4.70;;;;;;;21.94;46.38;99613.53;5034747;28;20017;-36
2021/09/01 03:15:13;;;;;;;9.55;4.80;;;;;;;21.93;46.27;99617.31;5034425;28;20026;-36
2021/09/01 03:17:39;;;;;;;10.95;5.30;;;;;;;21.92;46.01;99618.44;5034449;28;20030;-35
2021/09/01 03:20:05;;;;;;;13.88;8.32;;;;;;;21.95;46.50;99629.50;5034435;28;20032;-36
2021/09/01 03:22:30;;;;;;;8.90;6.80;;;;;;;21.86;46.69;99626.59;5034168;28;20299;-37
2021/09/01 03:24:56;;;;;;;8.32;5.65;;;;;;;21.83;46.79;99627.13;5039512;28;20032;-37
2021/09/01 03:27:21;;;;;;;16.42;10.88;;;;;;;22.27;45.35;99633.63;5054137;28;20036;-37
2021/09/01 03:29:47;;;;;;;9.60;5.30;;;;;;;21.73;46.83;99624.50;5034632;28;20021;-37
2021/09/01 03:32:13;;;;;;;9.68;5.05;;;;;;;21.62;47.13;99633.78;5033913;28;20029;-36
2021/09/01 03:34:38;;;;;;;7.22;4.60;;;;;;;21.74;46.33;99633.44;5034187;28;20029;-37
2021/09/01 03:37:04;;;;;;;6.75;4.72;;;;;;;21.71;46.74;99632.09;5034041;28;20040;-36
2021/09/01 03:39:29;;;;;;;6.45;4.60;;;;;;;21.73;46.06;99632.63;5033988;28;20037;-37
2021/09/01 03:41:54;;;;;;;5.40;4.22;;;;;;;21.70;46.40;99629.66;5034010;28;20078;-37
2021/09/01 03:44:20;;;;;;;9.90;5.82;;;;;;;21.81;46.19;99633.94;5032958;28;20021;-37
2021/09/01 03:46:45;;;;;;;10.43;5.90;;;;;;;22.16;44.80;99635.59;5051577;28;20031;-36
2021/09/01 03:49:16;;;;;;;7.68;5.18;;;;;;;21.57;46.27;99628.38;5052415;28;20078;-36
2021/09/01 03:51:45;;;;;;;8.27;5.55;;;;;;;21.46;46.52;99636.56;5052782;28;20028;-36
2021/09/01 03:54:11;;;;;;;6.03;4.68;;;;;;;21.30;47.28;99637.66;5052723;28;20025;-36
2021/09/01 03:56:37;;;;;;;9.07;4.95;;;;;;;21.50;46.65;99636.00;5052395;28;20610;-35
2021/09/01 03:59:03;;;;;;;8.27;4.90;;;;;;;22.05;45.78;99642.97;5052034;28;20032;-47
2021/09/01 04:01:29;;;;;;;6.15;4.60;;;;;;;21.55;46.55;99650.34;5052719;28;20055;-48
2021/09/01 04:03:54;;;;;;;9.30;4.82;;;;;;;21.60;46.74;99647.59;5052958;28;20027;-46
2021/09/01 04:06:20;;;;;;;9.75;4.70;;;;;;;21.51;47.21;99643.84;5052559;28;20029;-50
2021/09/01 04:08:45;;;;;;;10.60;4.80;;;;;;;22.32;45.03;99649.06;5052151;28;20156;-48
2021/09/01 04:11:11;;;;;;;11.70;7.18;;;;;;;22.58;45.02;99649.63;5051464;28;20021;-48
2021/09/01 04:13:36;;;;;;;10.15;4.88;;;;;;;22.24;45.12;99648.53;5051055;28;20020;-51
2021/09/01 04:16:02;;;;;;;6.85;4.90;;;;;;;22.22;45.18;99656.13;5052403;28;20032;-51
2021/09/01 04:18:27;;;;;;;11.18;6.03;;;;;;;22.65;44.44;99647.38;5051559;28;20510;-48
2021/09/01 04:20:53;;;;;;;8.60;5.30;;;;;;;23.36;42.79;99648.56;5052092;28;20047;-48
2021/09/01 04:23:18;;;;;;;7.32;4.80;;;;;;;22.90;43.71;99650.94;5052174;28;20021;-51
2021/09/01 04:25:44;;;;;;;5.60;4.82;;;;;;;22.92;44.37;99643.31;5052085;28;20020;-49
2021/09/01 04:28:09;;;;;;;8.52;5.28;;;;;;;22.93;44.02;99659.31;5051505;28;20457;-50
2021/09/01 04:30:34;;;;;;;8.32;5.50;;;;;;;23.58;42.55;99655.31;5050643;28;20067;-48
2021/09/01 04:33:00;;;;;;;38.55;25.50;;;;;;;23.22;42.93;99655.78;5051862;28;20024;-48
2021/09/01 04:35:25;;;;;;;20.58;12.18;;;;;;;23.29;42.83;99653.53;5052262;28;20067;-49
2021/09/01 04:37:51;;;;;;;11.23;7.93;;;;;;;23.47;42.37;99653.84;5051713;28;20700;-49
2021/09/01 04:40:16;;;;;;;8.02;5.10;;;;;;;23.89;41.47;99649.50;5052135;28;20025;-48
2021/09/01 04:42:42;;;;;;;10.43;4.80;;;;;;;24.30;40.42;99659.75;5051669;28;20132;-49
2021/09/01 04:45:08;;;;;;;5.55;4.30;;;;;;;24.01;40.69;99655.31;5051677;28;20017;-49
2021/09/01 04:47:33;;;;;;;10.07;4.50;;;;;;;24.31;40.18;99655.91;5051703;28;20102;-46
2021/09/01 04:49:59;;;;;;;9.30;4.68;;;;;;;24.45;39.50;99659.50;5051920;28;20021;-47
2021/09/01 04:52:24;;;;;;;8.63;4.60;;;;;;;25.03;38.46;99652.75;5052061;28;20021;-47
2021/09/01 04:54:50;;;;;;;11.85;5.55;;;;;;;25.04;38.75;99657.09;5050689;28;20024;-48
2021/09/01 04:57:15;;;;;;;6.93;5.15;;;;;;;24.68;39.46;99657.75;5050485;28;20457;-47
2021/09/01 04:59:40;;;;;;;14.95;5.25;;;;;;;24.85;39.11;99668.06;5050347;28;20017;-49
2021/09/01 05:02:06;;;;;;;8.68;4.63;;;;;;;24.94;38.60;99663.56;5050132;28;20039;-48
2021/09/01 05:04:31;;;;;;;9.38;4.30;;;;;;;25.97;36.77;99658.75;5050168;28;20036;-48
2021/09/01 05:06:57;;;;;;;8.95;4.25;;;;;;;25.64;37.04;99660.81;5050303;28;20037;-47
2021/09/01 05:09:22;;;;;;;9.52;3.95;;;;;;;25.74;37.05;99663.28;5050716;28;20049;-47
2021/09/01 05:11:48;;;;;;;7.25;4.28;;;;;;;25.70;36.24;99654.94;5052121;28;20021;-50
2021/09/01 05:14:13;;;;;;;10.38;4.05;;;;;;;25.88;36.41;99655.91;5051766;28;20090;-48
2021/09/01 05:16:39;;;;;;;6.80;4.05;;;;;;;26.17;35.83;99651.19;5051479;28;20353;-49
2021/09/01 05:19:05;;;;;;;6.03;4.13;;;;;;;26.68;34.76;99652.66;5051309;28;20021;-48
2021/09/01 05:21:31;;;;;;;8.43;4.20;;;;;;;26.47;34.94;99647.69;5051060;28;20133;-50
2021/09/01 05:23:56;;;;;;;6.00;3.90;;;;;;;26.60;35.02;99646.03;5050188;28;20120;-49
2021/09/01 05:26:27;;;;;;;7.25;3.92;;;;;;;26.97;34.36;99637.69;5033864;28;20446;-49
2021/09/01 05:28:52;;;;;;;5.55;3.80;;;;;;;27.01;34.05;99639.47;5029593;28;20059;-48
2021/09/01 05:31:18;;;;;;;5.03;3.65;;;;;;;25.97;35.53;99642.38;5030791;28;20036;-47
2021/09/01 05:33:46;;;;;;;8.65;4.00;;;;;;;26.22;35.72;99646.41;5030998;28;20033;-47
2021/09/01 05:36:12;;;;;;;7.13;4.10;;;;;;;26.95;34.54;99642.66;5030918;28;20106;-51
2021/09/01 05:38:37;;;;;;;7.95;4.22;;;;;;;27.09;33.96;99641.44;5029828;28;20030;-48
2021/09/01 05:41:03;;;;;;;8.18;4.07;;;;;;;27.50;33.15;99642.22;5029565;28;20040;-50
2021/09/01 05:43:28;;;;;;;8.98;3.83;;;;;;;28.26;32.08;99643.69;5031021;28;20473;-48
2021/09/01 05:45:54;;;;;;;10.25;3.88;;;;;;;27.48;33.02;99639.00;5030801;28;20103;-47
2021/09/01 05:48:20;;;;;;;4.85;3.88;;;;;;;27.07;33.97;99642.84;5030943;28;20487;-47
2021/09/01 05:50:53;;;;;;;10.80;4.20;;;;;;;27.45;33.67;99636.88;5029715;28;20033;-49
2021/09/01 05:53:18;;;;;;;9.25;3.95;;;;;;;27.81;33.06;99639.31;5029557;28;20064;-51
2021/09/01 05:55:44;;;;;;;7.47;4.00;;;;;;;27.93;32.75;99643.38;5030914;28;20037;-47
2021/09/01 05:58:13;;;;;;;6.18;4.15;;;;;;;28.18;32.25;99639.84;5029101;28;20026;-46
2021/09/01 06:00:39;;;;;;;4.00;3.25;;;;;;;28.12;32.32;99632.94;5030372;28;20355;-48
2021/09/01 06:03:10;;;;;;;5.25;3.70;;;;;;;28.28;32.14;99633.22;5030350;28;20122;-48
2021/09/01 06:05:37;;;;;;;7.15;3.40;;;;;;;27.78;32.56;99633.69;5028988;28;20026;-47
2021/09/01 06:08:03;;;;;;;5.78;3.63;;;;;;;28.31;31.82;99640.78;5030213;28;20480;-48
2021/09/01 06:10:31;;;;;;;5.90;3.63;;;;;;;28.56;31.30;99632.84;5029154;28;20143;-49
2021/09/01 06:13:18;;;;;;;5.47;3.53;;;;;;;28.49;31.05;99640.75;5030338;28;20156;-48
2021/09/01 06:15:43;;;;;;;6.53;3.45;;;;;;;28.89;29.83;99586.53;5030468;28;20033;-47
2021/09/01 06:18:09;;;;;;;6.85;3.40;;;;;;;28.73;30.47;99642.94;5030453;28;20033;-50
2021/09/01 06:20:35;;;;;;;3.90;3.10;;;;;;;29.16;29.63;99637.31;5029976;28;20022;-50
2021/09/01 06:23:01;;;;;;;6.15;3.38;;;;;;;29.12;29.91;99641.81;5030219;28;20029;-49
2021/09/01 06:25:27;;;;;;;5.10;2.95;;;;;;;28.24;30.71;99643.22;5029997;28;20091;-47
2021/09/01 06:27:52;;;;;;;6.10;3.13;;;;;;;28.26;30.98;99644.50;5030114;28;20040;-47
2021/09/01 06:30:17;;;;;;;6.05;3.40;;;;;;;28.91;30.04;99649.19;5029986;28;20029;-49
2021/09/01 06:32:43;;;;;;;6.47;3.08;;;;;;;28.56;30.48;99652.00;5029852;28;20029;-46
2021/09/01 06:35:09;;;;;;;6.15;2.90;;;;;;;28.02;31.27;99620.38;5029948;28;20025;-50
2021/09/01 06:37:39;;;;;;;5.35;3.08;;;;;;;29.12;30.16;99655.50;5029953;28;20028;-48
2021/09/01 06:40:05;;;;;;;5.85;3.15;;;;;;;29.47;29.46;99649.06;5028638;28;20033;-49
2021/09/01 06:42:31;;;;;;;5.68;3.15;;;;;;;29.37;29.47;99661.22;5029485;28;20037;-47
2021/09/01 06:44:56;;;;;;;6.68;3.30;;;;;;;29.19;29.85;99650.34;5029747;28;20124;-48
2021/09/01 06:47:22;;;;;;;6.72;3.60;;;;;;;28.54;30.55;99663.31;5029698;28;20099;-49
2021/09/01 06:49:47;;;;;;;4.90;3.05;;;;;;;28.52;31.08;99667.47;5030241;28;20029;-48
2021/09/01 06:52:13;;;;;;;9.18;3.33;;;;;;;28.78;30.76;99672.91;5030264;28;20017;-48
2021/09/01 06:54:38;;;;;;;4.70;3.05;;;;;;;29.26;29.78;99673.69;5029948;28;20057;-47
2021/09/01 06:57:04;;;;;;;5.72;3.08;;;;;;;29.03;30.12;99682.97;5046225;28;20036;-47
2021/09/01 06:59:29;;;;;;;4.22;2.78;;;;;;;29.02;30.45;99675.88;5050440;28;20029;-49
2021/09/01 07:01:55;;;;;;;8.77;3.20;;;;;;;28.19;31.18;99657.06;5049006;28;20024;-50
2021/09/01 07:04:20;;;;;;;5.20;3.10;;;;;;;28.50;31.08;99677.91;5040998;28;20485;-51
2021/09/01 07:06:46;;;;;;;5.05;3.10;;;;;;;28.33;31.23;99676.84;5039042;28;20037;-49
2021/09/01 07:09:12;;;;;;;6.22;3.10;;;;;;;28.01;31.70;99684.41;5039769;28;20049;-47
2021/09/01 07:11:37;;;;;;;5.68;2.90;;;;;;;27.91;32.25;99687.44;5038338;28;20025;-47
2021/09/01 07:14:03;;;;;;;8.13;3.45;;;;;;;28.01;32.41;99683.63;5034448;28;20037;-46
2021/09/01 07:16:28;;;;;;;5.35;3.45;;;;;;;27.92;32.26;99678.13;5029546;28;20409;-47
2021/09/01 07:18:54;;;;;;;6.50;3.28;;;;;;;27.91;32.73;99681.19;5029619;28;20049;-46
2021/09/01 07:21:19;;;;;;;6.05;3.00;;;;;;;28.32;32.10;99679.91;5029866;28;20316;-46
2021/09/01 07:23:45;;;;;;;6.60;3.40;;;;;;;28.33;32.27;99681.47;5029039;28;20037;-47
2021/09/01 07:26:12;;;;;;;4.78;3.25;;;;;;;27.89;32.86;99670.56;5029256;28;20053;-47
2021/09/01 07:28:40;;;;;;;4.63;3.00;;;;;;;28.19;32.39;99670.72;5029385;28;20068;-47
2021/09/01 07:31:06;;;;;;;6.47;3.30;;;;;;;28.25;31.85;99677.63;5029494;28;20025;-46
2021/09/01 07:33:32;;;;;;;4.10;3.10;;;;;;;28.29;32.18;99670.38;5029413;28;20048;-50
2021/09/01 07:35:57;;;;;;;5.65;3.30;;;;;;;28.88;31.13;99671.72;5029379;28;20033;-47
2021/09/01 07:38:23;;;;;;;7.85;3.05;;;;;;;29.33;30.83;99679.47;5029395;28;20501;-49
2021/09/01 07:40:48;;;;;;;5.50;2.70;;;;;;;29.37;30.29;99674.91;5029308;28;20103;-46
2021/09/01 07:43:14;;;;;;;3.92;2.90;;;;;;;29.56;29.81;99669.00;5029191;28;20022;-46
2021/09/01 07:45:42;;;;;;;5.78;3.00;;;;;;;30.15;29.23;99665.34;5029450;28;20331;-47
2021/09/01 07:48:08;;;;;;;3.65;2.65;;;;;;;29.99;29.57;99657.75;5029451;28;20079;-47
2021/09/01 07:50:33;;;;;;;5.00;2.88;;;;;;;29.47;30.22;99655.34;5029406;28;20033;-47
2021/09/01 07:52:59;;;;;;;4.38;3.20;;;;;;;28.82;30.86;99651.94;5030382;28;20500;-47
2021/09/01 07:55:24;;;;;;;4.38;2.60;;;;;;;28.91;30.53;99649.19;5033046;28;20370;-45
2021/09/01 07:57:50;;;;;;;4.35;2.60;;;;;;;28.72;30.67;99655.84;5031511;28;20033;-50
2021/09/01 08:00:16;;;;;;;4.35;2.50;;;;;;;29.68;30.22;99641.66;5033146;28;20036;-47
2021/09/01 08:02:41;;;;;;;3.58;2.60;;;;;;;29.97;29.20;99640.81;5032810;28;20488;-49
2021/09/01 08:05:07;;;;;;;3.40;2.88;;;;;;;30.20;28.78;99644.00;5032780;28;20531;-48
2021/09/01 08:07:33;;;;;;;5.60;2.75;;;;;;;29.56;29.16;99642.38;5032730;28;20143;-47
2021/09/01 08:09:59;;;;;;;3.40;2.58;;;;;;;29.80;28.92;99643.72;5032626;28;20107;-46
2021/09/01 08:12:24;;;;;;;7.80;2.80;;;;;;;30.42;28.59;99642.03;5032531;28;20033;-47
2021/09/01 08:14:50;;;;;;;5.40;2.70;;;;;;;30.51;28.34;99639.19;5032758;28;20409;-49
2021/09/01 08:17:15;;;;;;;6.20;2.90;;;;;;;30.67;28.11;99633.84;5032268;28;20025;-47
2021/09/01 08:19:41;;;;;;;8.27;3.42;;;;;;;31.36;27.19;99629.41;5032608;28;20057;-50
2021/09/01 08:22:07;;;;;;;4.97;2.90;;;;;;;31.55;26.65;99620.59;5032567;28;20025;-49
2021/09/01 08:24:33;;;;;;;4.57;2.70;;;;;;;31.32;26.80;99632.06;5032252;28;20022;-48
2021/09/01 08:26:58;;;;;;;4.82;3.05;;;;;;;31.55;26.29;99629.63;5032310;28;20413;-47
2021/09/01 08:29:23;;;;;;;4.45;2.80;;;;;;;31.61;26.04;99632.16;5033885;28;20138;-46
2021/09/01 08:31:49;;;;;;;6.28;3.30;;;;;;;31.56;26.14;99624.94;5043039;28;20026;-47
2021/09/01 08:34:14;;;;;;;4.72;3.00;;;;;;;31.01;27.11;99629.09;5040928;28;20471;-50
2021/09/01 08:36:40;;;;;;;6.45;2.80;;;;;;;32.00;26.26;99622.25;5042654;28;20047;-50
2021/09/01 08:39:05;;;;;;;8.73;2.95;;;;;;;31.44;26.54;99617.47;5039376;28;20444;-48
2021/09/01 08:41:31;;;;;;;4.00;2.83;;;;;;;31.81;26.34;99614.66;5044486;28;20033;-49
2021/09/01 08:43:56;;;;;;;3.10;2.67;;;;;;;31.99;26.10;99615.16;5040385;28;20043;-48
2021/09/01 08:46:22;;;;;;;3.75;2.70;;;;;;;32.00;25.74;99610.44;5039158;28;20111;-49
2021/09/01 08:48:47;;;;;;;5.72;2.88;;;;;;;31.43;26.23;99609.56;5041112;28;20037;-48
2021/09/01 08:51:13;;;;;;;4.38;2.72;;;;;;;31.83;26.21;99604.09;5039663;28;20095;-46
2021/09/01 08:53:38;;;;;;;3.78;2.40;;;;;;;31.47;26.23;99594.00;5038100;28;20029;-47
2021/09/01 08:56:04;;;;;;;5.40;2.65;;;;;;;31.78;25.94;99598.84;5040611;28;20025;-49
2021/09/01 08:58:29;;;;;;;8.13;2.40;;;;;;;31.93;24.92;99592.59;5043421;28;20028;-49
2021/09/01 09:00:55;;;;;;;4.38;2.40;;;;;;;31.53;25.47;99596.19;5051633;28;20106;-51
2021/09/01 09:03:20;;;;;;;4.00;2.50;;;;;;;31.70;24.87;99592.34;5051273;28;20032;-50
2021/09/01 09:05:47;;;;;;;2.40;2.20;;;;;;;31.41;25.25;99596.16;5049821;28;20412;-48
2021/09/01 09:08:13;;;;;;;3.58;2.33;;;;;;;31.38;25.60;99577.63;5033615;28;20124;-51
2021/09/01 09:10:43;;;;;;;2.67;2.30;;;;;;;30.76;26.26;99574.91;5033845;28;20041;-47
2021/09/01 09:13:12;;;;;;;6.60;2.40;;;;;;;31.45;25.70;99574.28;5042918;28;20106;-47
2021/09/01 09:15:39;;;;;;;5.28;2.38;;;;;;;31.17;26.22;99575.06;5035365;28;20155;-50
2021/09/01 09:18:23;;;;;;;3.95;2.50;;;;;;;31.75;26.07;99570.09;5047566;28;20038;-48
2021/09/01 09:20:49;;;;;;;4.82;2.72;;;;;;;31.53;25.77;99574.19;5038724;28;20104;-50
2021/09/01 09:23:14;;;;;;;3.83;2.30;;;;;;;31.48;25.26;99568.94;5029827;28;20017;-49
2021/09/01 09:25:39;;;;;;;2.65;2.10;;;;;;;31.34;24.87;99565.75;5013084;28;20029;-47
2021/09/01 09:28:06;;;;;;;2.95;2.15;;;;;;;31.96;24.33;99569.88;5047453;28;20025;-48
2021/09/01 09:30:42;;;;;;;4.40;2.40;;;;;;;32.03;23.99;99561.06;5031222;28;20021;-47
2021/09/01 09:33:14;;;;;;;3.95;2.22;;;;;;;31.80;24.63;99560.81;5042314;28;20028;-50
2021/09/01 09:35:57;;;;;;;2.42;2.15;;;;;;;31.83;24.34;99556.53;5035033;28;20101;-47
2021/09/01 09:38:42;;;;;;;3.65;2.63;;;;;;;32.55;23.76;99550.97;5036046;28;20027;-49
2021/09/01 09:41:30;;;;;;;3.92;2.40;;;;;;;32.28;23.82;99544.41;5039308;28;20033;-51
2021/09/01 09:44:03;;;;;;;5.63;2.83;;;;;;;32.06;23.85;99541.09;5047373;28;20044;-47
2021/09/01 09:46:29;;;;;;;3.67;2.50;;;;;;;31.51;24.72;99527.00;5036908;28;20013;-48
2021/09/01 09:49:04;;;;;;;3.60;2.30;;;;;;;31.84;24.16;99522.38;5040556;28;20425;-48
2021/09/01 09:51:41;;;;;;;3.75;2.30;;;;;;;31.83;24.10;99527.06;5044913;28;20016;-49
2021/09/01 09:54:13;;;;;;;2.80;2.30;;;;;;;31.04;24.66;99519.31;5033986;28;20708;-50
2021/09/01 09:56:39;;;;;;;3.80;2.50;;;;;;;31.08;24.92;99520.22;5043234;28;20029;-48
2021/09/01 09:59:04;;;;;;;3.28;2.05;;;;;;;31.52;25.04;99517.59;5023851;28;20180;-48
2021/09/01 10:01:30;;;;;;;2.63;2.30;;;;;;;31.34;24.33;99519.03;5034432;28;20036;-45
2021/09/01 10:03:56;;;;;;;3.22;2.10;;;;;;;31.85;23.78;99518.47;5047017;28;20032;-45
2021/09/01 10:06:22;;;;;;;3.22;2.05;;;;;;;32.14;23.79;99509.06;5034216;28;20404;-47
2021/09/01 10:08:48;;;;;;;2.33;2.10;;;;;;;31.96;24.32;99516.81;5041679;28;20064;-50
2021/09/01 10:11:15;;;;;;;2.95;2.08;;;;;;;31.41;24.86;99502.72;5042709;28;20028;-50
2021/09/01 10:13:41;;;;;;;2.53;1.90;;;;;;;31.93;24.34;99503.78;5034017;28;20025;-50
2021/09/01 10:16:22;;;;;;;2.38;2.00;;;;;;;32.24;24.05;99503.00;5046497;28;20493;-49
2021/09/01 10:18:51;;;;;;;2.45;1.95;;;;;;;31.45;24.35;99492.59;5039072;28;20152;-50
2021/09/01 10:21:17;;;;;;;3.45;1.90;;;;;;;31.67;23.97;99494.03;5036071;28;20110;-48
2021/09/01 10:23:44;;;;;;;2.75;2.00;;;;;;;31.60;24.18;99495.81;5046565;28;20071;-51
2021/09/01 10:26:30;;;;;;;5.15;2.42;;;;;;;31.37;24.64;99488.06;5029900;28;20100;-49
2021/09/01 10:28:57;;;;;;;3.72;2.13;;;;;;;31.56;24.72;99476.44;5038689;28;20029;-48
2021/09/01 10:31:25;;;;;;;2.85;2.38;;;;;;;31.87;24.15;99470.22;5036356;28;20477;-48
2021/09/01 10:33:52;;;;;;;3.28;2.20;;;;;;;31.60;24.62;99473.81;5046368;28;20052;-50
2021/09/01 10:36:26;;;;;;;3.15;2.28;;;;;;;31.96;24.82;99470.81;5034777;28;20122;-48
2021/09/01 10:39:13;;;;;;;3.38;2.30;;;;;;;32.51;24.36;99462.75;5040600;28;20090;-48
2021/09/01 10:41:39;;;;;;;2.65;2.20;;;;;;;32.63;23.81;99464.63;5045696;28;20166;-48
2021/09/01 10:44:10;;;;;;;4.63;2.28;;;;;;;32.48;23.62;99466.25;5033223;28;20021;-48
2021/09/01 10:46:51;;;;;;;3.95;2.10;;;;;;;32.22;23.51;99466.78;5050161;28;20397;-50
2021/09/01 10:49:20;;;;;;;5.90;2.13;;;;;;;32.27;23.17;99465.72;5050381;28;20036;-48
2021/09/01 10:51:49;;;;;;;2.70;2.00;;;;;;;32.59;22.77;99469.25;5050690;28;20145;-49
2021/09/01 10:54:36;;;;;;;3.40;2.30;;;;;;;32.66;23.08;99468.63;5050242;28;20029;-48
2021/09/01 10:57:04;;;;;;;4.28;2.33;;;;;;;32.50;23.29;99465.88;5046955;28;20087;-46
2021/09/01 10:59:38;;;;;;;4.28;2.10;;;;;;;32.54;22.96;99453.78;5042118;28;20037;-47
2021/09/01 11:02:10;;;;;;;2.60;2.05;;;;;;;32.12;22.78;99457.13;5042451;28;20025;-47
2021/09/01 11:04:36;;;;;;;3.45;2.00;;;;;;;32.04;23.12;99457.28;5038572;28;20474;-48
2021/09/01 11:07:05;;;;;;;3.13;1.90;;;;;;;31.75;23.67;99448.28;5039886;28;20059;-47
2021/09/01 11:09:30;;;;;;;2.85;2.00;;;;;;;32.36;23.14;99438.00;5041200;28;20402;-46
2021/09/01 11:11:57;;;;;;;3.97;1.98;;;;;;;32.82;22.66;99441.81;5038338;28;20477;-50
2021/09/01 11:14:43;;;;;;;2.38;1.92;;;;;;;32.52;23.11;99442.34;5031012;28;20112;-47
2021/09/01 11:17:12;;;;;;;4.40;2.20;;;;;;;32.73;22.80;99439.28;5030047;28;20195;-46
2021/09/01 11:19:39;;;;;;;2.75;2.00;;;;;;;32.78;22.78;99434.66;5030329;28;20025;-47
2021/09/01 11:22:21;;;;;;;8.15;2.20;;;;;;;32.41;21.98;99426.75;5028332;28;20025;-48
2021/09/01 11:25:04;;;;;;;2.30;1.95;;;;;;;32.66;22.41;99436.38;5029933;28;20058;-48
2021/09/01 11:27:30;;;;;;;4.07;2.00;;;;;;;33.02;21.62;99428.09;5029910;28;20029;-48
2021/09/01 11:30:09;;;;;;;3.78;1.92;;;;;;;32.12;22.66;99437.03;5033826;28;20063;-47
2021/09/01 11:32:35;;;;;;;3.80;1.70;;;;;;;32.49;22.36;99436.75;5033713;28;20036;-48
2021/09/01 11:35:03;;;;;;;4.65;1.73;;;;;;;32.13;22.79;99438.66;5033470;28;20030;-50